createdAt,value
2023-01-05T00:02:20.141Z,1.03
2023-01-05T00:07:28.305Z,0.90
2023-01-05T00:12:48.863Z,0.97
2023-01-05T00:18:09.198Z,0.83
2023-01-05T00:23:13.689Z,0.80
2023-01-05T00:28:16.781Z,0.90
2023-01-05T00:33:19.865Z,0.80
2023-01-05T00:38:24.367Z,0.80
2023-01-05T00:43:27.447Z,0.90
2023-01-05T00:48:30.542Z,0.80
2023-01-05T00:53:35.056Z,0.80
2023-01-05T00:58:38.132Z,0.70
2023-01-05T01:03:41.755Z,0.90
2023-01-05T01:08:46.251Z,0.83
2023-01-05T01:13:49.360Z,0.80
2023-01-05T01:18:53.728Z,0.80
2023-01-05T01:23:58.392Z,0.80
2023-01-05T01:29:01.550Z,1.00
2023-01-05T01:34:05.185Z,1.00
2023-01-05T01:39:10.041Z,0.80
2023-01-05T01:44:51.914Z,0.80
2023-01-05T01:49:56.625Z,0.80
2023-01-05T01:55:04.076Z,0.67
2023-01-05T02:00:09.886Z,0.70
2023-01-05T02:05:14.358Z,0.70
2023-01-05T02:10:30.944Z,0.70
2023-01-05T02:15:41.594Z,0.60
2023-01-05T02:21:05.374Z,0.80
2023-01-05T02:27:02.994Z,0.80
2023-01-05T02:32:14.724Z,0.70
2023-01-05T02:37:25.893Z,0.70
2023-01-05T02:42:32.914Z,0.80
2023-01-05T02:47:43.151Z,0.70
2023-01-05T02:52:52.280Z,0.70
2023-01-05T02:58:00.541Z,0.70
2023-01-05T03:03:11.692Z,0.70
2023-01-05T03:08:26.397Z,0.70
2023-01-05T03:13:44.761Z,0.57
2023-01-05T03:19:09.057Z,0.60
2023-01-05T03:24:30.247Z,0.50
2023-01-05T03:29:51.082Z,0.60
2023-01-05T03:35:18.196Z,0.50
2023-01-05T03:40:25.220Z,0.67
2023-01-05T03:45:35.626Z,0.70
2023-01-05T03:50:40.113Z,0.70
2023-01-05T03:55:43.363Z,0.50
2023-01-05T04:00:46.467Z,0.73
2023-01-05T04:05:51.013Z,0.60
2023-01-05T04:10:54.447Z,0.67
2023-01-05T04:15:57.593Z,0.60
2023-01-05T04:21:02.183Z,0.70
2023-01-05T04:26:05.620Z,0.60
2023-01-05T04:31:08.729Z,0.50
2023-01-05T04:36:13.439Z,0.50
2023-01-05T04:41:16.571Z,0.50
2023-01-05T04:46:19.882Z,0.43
2023-01-05T04:51:24.388Z,0.57
2023-01-05T04:56:27.503Z,0.50
2023-01-05T05:01:30.713Z,0.50
2023-01-05T05:06:35.325Z,0.40
2023-01-05T05:11:38.422Z,0.50
2023-01-05T05:16:41.501Z,0.50
2023-01-05T05:21:46.105Z,0.50
2023-01-05T05:26:49.224Z,0.50
2023-01-05T05:31:52.515Z,0.40
2023-01-05T05:36:56.999Z,0.50
2023-01-05T05:42:00.185Z,0.60
2023-01-05T05:47:03.462Z,0.50
2023-01-05T05:52:08.001Z,0.60
2023-01-05T05:57:11.094Z,0.60
2023-01-05T06:02:14.298Z,0.40
2023-01-05T06:07:18.815Z,0.50
2023-01-05T06:12:21.912Z,0.40
2023-01-05T06:17:25.064Z,0.60
2023-01-05T06:22:29.508Z,0.70
2023-01-05T06:27:32.678Z,0.60
2023-01-05T06:32:35.843Z,0.50
2023-01-05T06:37:40.550Z,0.50
2023-01-05T06:42:44.015Z,0.60
2023-01-05T06:47:47.494Z,0.50
2023-01-05T06:52:51.939Z,0.60
2023-01-05T06:58:00.531Z,0.60
2023-01-05T07:03:04.457Z,0.80
2023-01-05T07:08:08.926Z,0.90
2023-01-05T07:13:12.047Z,0.80
2023-01-05T07:18:15.146Z,1.00
2023-01-05T07:23:20.338Z,0.80
2023-01-05T07:28:23.419Z,0.70
2023-01-05T07:33:26.703Z,0.70
2023-01-05T07:38:32.126Z,0.80
2023-01-05T07:43:35.691Z,0.60
2023-01-05T07:48:41.620Z,0.70
2023-01-05T07:53:46.193Z,0.67
2023-01-05T07:58:49.317Z,1.10
2023-01-05T08:03:52.502Z,0.70
2023-01-05T08:08:57.766Z,0.63
2023-01-05T08:14:01.085Z,0.70
2023-01-05T08:19:09.198Z,0.60
2023-01-05T08:24:15.725Z,1.17
2023-01-05T08:29:19.126Z,0.60
2023-01-05T08:34:22.283Z,0.83
2023-01-05T08:39:26.742Z,0.87
2023-01-05T08:44:29.907Z,0.83
2023-01-05T08:49:33.018Z,1.30
2023-01-05T08:54:37.484Z,1.40
2023-01-05T08:59:40.821Z,1.50
2023-01-05T09:04:43.966Z,1.00
2023-01-05T09:09:48.494Z,1.50
2023-01-05T09:14:51.645Z,1.50
2023-01-05T09:19:54.747Z,1.30
2023-01-05T09:24:59.260Z,1.57
2023-01-05T09:30:02.345Z,1.50
2023-01-05T09:35:06.072Z,1.50
2023-01-05T09:40:13.390Z,1.20
2023-01-05T09:45:25.627Z,1.23
2023-01-05T09:50:31.926Z,1.47
2023-01-05T09:55:37.519Z,1.50
2023-01-05T10:00:44.537Z,1.40
2023-01-05T10:05:50.121Z,1.53
2023-01-05T10:11:21.451Z,1.33
2023-01-05T10:16:29.313Z,4.50
2023-01-05T10:21:44.131Z,6.10
2023-01-05T10:32:26.085Z,1.93
2023-01-05T10:37:53.692Z,1.60
2023-01-05T10:43:16.311Z,1.37
2023-01-05T10:48:23.713Z,1.80
2023-01-05T10:53:29.738Z,1.60
2023-01-05T10:58:35.928Z,1.97
2023-01-05T11:09:21.857Z,1.53
2023-01-05T11:14:29.192Z,1.80
2023-01-05T11:19:36.987Z,1.50
2023-01-05T11:24:40.191Z,1.77
2023-01-05T11:29:44.734Z,1.50
2023-01-05T11:34:51.987Z,1.50
2023-01-05T11:39:57.322Z,1.60
2023-01-05T11:45:04.366Z,1.50
2023-01-05T11:50:18.427Z,1.67
2023-01-05T11:55:31.255Z,3.10
2023-01-05T12:00:46.571Z,2.00
2023-01-05T12:05:53.054Z,2.40
2023-01-05T12:11:06.878Z,1.93
2023-01-05T12:16:23.016Z,2.20
2023-01-05T12:21:28.296Z,2.03
2023-01-05T12:26:39.187Z,1.67
2023-01-05T12:37:39.784Z,1.73
2023-01-05T12:43:06.005Z,1.73
2023-01-05T12:48:17.045Z,1.60
2023-01-05T12:53:30.559Z,2.10
2023-01-05T12:58:38.299Z,2.20
2023-01-05T13:03:48.877Z,1.87
2023-01-05T13:08:57.192Z,1.90
2023-01-05T13:14:04.819Z,2.70
2023-01-05T13:19:18.977Z,2.73
2023-01-05T13:24:30.168Z,4.17
2023-01-05T13:29:36.832Z,5.40
2023-01-05T13:35:22.701Z,5.60
2023-01-05T13:40:45.414Z,3.97
2023-01-05T13:46:14.431Z,2.70
2023-01-05T13:51:40.806Z,2.40
2023-01-05T13:56:46.585Z,3.33
2023-01-05T14:01:51.112Z,2.40
2023-01-05T14:06:58.194Z,2.57
2023-01-05T14:12:27.069Z,2.20
2023-01-05T14:17:52.475Z,2.40
2023-01-05T14:22:57.932Z,2.40
2023-01-05T14:28:40.831Z,2.80
2023-01-05T14:33:49.628Z,4.00
2023-01-05T14:38:54.387Z,3.00
2023-01-05T14:44:01.225Z,2.13
2023-01-05T14:49:07.839Z,1.83
2023-01-05T14:54:12.719Z,2.23
2023-01-05T14:59:23.627Z,1.83
2023-01-05T15:04:30.801Z,1.87
2023-01-05T15:09:48.490Z,2.30
2023-01-05T15:15:20.460Z,1.93
2023-01-05T15:20:36.724Z,2.63
2023-01-05T15:26:08.228Z,1.77
2023-01-05T15:31:37.848Z,2.20
2023-01-05T15:36:47.583Z,1.77
2023-01-05T15:41:52.821Z,2.27
2023-01-05T15:46:56.309Z,1.97
2023-01-05T15:51:59.886Z,2.13
2023-01-05T15:57:04.584Z,2.03
2023-01-05T16:02:17.967Z,2.20
2023-01-05T16:07:21.246Z,1.97
2023-01-05T16:12:26.971Z,2.40
2023-01-05T16:17:33.207Z,2.07
2023-01-05T16:22:43.378Z,2.20
2023-01-05T16:27:51.553Z,2.23
2023-01-05T16:32:58.197Z,1.97
2023-01-05T16:38:25.982Z,2.30
2023-01-05T16:43:34.577Z,1.90
2023-01-05T16:48:49.813Z,2.30
2023-01-05T16:53:55.194Z,2.67
2023-01-05T16:59:00.262Z,2.87
2023-01-05T17:04:11.640Z,2.20
2023-01-05T17:09:21.378Z,2.00
2023-01-05T17:14:26.984Z,2.50
2023-01-05T17:19:30.175Z,2.33
2023-01-05T17:24:34.057Z,3.00
2023-01-05T17:29:38.766Z,2.90
2023-01-05T17:34:42.450Z,2.57
2023-01-05T17:39:45.563Z,2.30
2023-01-05T17:44:51.825Z,2.60
2023-01-05T17:49:54.999Z,2.50
2023-01-05T17:54:58.105Z,2.13
2023-01-05T18:00:02.682Z,2.20
2023-01-05T18:05:06.608Z,2.10
2023-01-05T18:10:12.672Z,2.43
2023-01-05T18:15:17.769Z,2.00
2023-01-05T18:20:21.382Z,2.10
2023-01-05T18:25:25.385Z,2.23
2023-01-05T18:30:30.143Z,2.80
2023-01-05T18:35:35.060Z,2.93
2023-01-05T18:40:39.385Z,2.67
2023-01-05T18:45:43.994Z,2.53
2023-01-05T18:50:51.096Z,3.27
2023-01-05T18:55:54.392Z,2.70
2023-01-05T19:00:58.900Z,2.40
2023-01-05T19:06:06.367Z,3.10
2023-01-05T19:11:14.193Z,2.90
2023-01-05T19:16:20.450Z,2.80
2023-01-05T19:21:25.043Z,2.60
2023-01-05T19:26:31.533Z,3.63
2023-01-05T19:31:36.922Z,3.03
2023-01-05T19:36:39.998Z,2.90
2023-01-05T19:41:46.822Z,2.73
2023-01-05T19:46:53.324Z,6.07
2023-01-05T19:51:56.913Z,3.50
2023-01-05T19:57:00.124Z,3.13
2023-01-05T20:02:06.486Z,3.50
2023-01-05T20:07:10.260Z,3.40
2023-01-05T20:12:15.363Z,3.57
2023-01-05T20:17:20.074Z,2.53
2023-01-05T20:22:23.251Z,3.27
2023-01-05T20:27:26.354Z,2.70
2023-01-05T20:32:30.819Z,2.87
2023-01-05T20:37:34.276Z,2.70
2023-01-05T20:42:38.526Z,2.60
2023-01-05T20:47:47.354Z,2.57
2023-01-05T20:52:50.903Z,2.40
2023-01-05T20:57:54.052Z,2.50
2023-01-05T21:02:58.593Z,2.30
2023-01-05T21:08:01.815Z,2.07
2023-01-05T21:13:31.686Z,2.30
2023-01-05T21:18:29.361Z,3.43
2023-01-05T21:23:32.604Z,2.83
2023-01-05T21:28:36.048Z,2.70
2023-01-05T21:33:40.997Z,2.70
2023-01-05T21:39:01.358Z,2.40
2023-01-05T21:44:07.400Z,2.70
2023-01-05T21:49:13.003Z,2.40
2023-01-05T21:54:34.323Z,2.77
2023-01-05T21:59:37.647Z,2.70
2023-01-05T22:04:42.665Z,2.93
2023-01-05T22:09:45.786Z,3.77
2023-01-05T22:14:48.920Z,2.90
2023-01-05T22:19:53.859Z,2.70
2023-01-05T22:24:56.992Z,3.10
2023-01-05T22:30:00.164Z,2.40
2023-01-05T22:35:05.842Z,3.33
2023-01-05T22:40:10.498Z,5.80
2023-01-05T22:45:14.090Z,4.60
2023-01-05T22:50:18.854Z,4.17
2023-01-05T22:55:22.059Z,4.33
2023-01-05T23:00:25.315Z,4.50
2023-01-05T23:05:29.818Z,4.50
2023-01-05T23:10:33.271Z,4.73
2023-01-05T23:15:36.462Z,4.50
2023-01-05T23:20:40.999Z,6.27
2023-01-05T23:25:46.621Z,7.90
2023-01-05T23:30:51.177Z,9.27
2023-01-05T23:35:56.411Z,5.20
2023-01-05T23:41:00.291Z,4.87
2023-01-05T23:46:05.352Z,6.20
2023-01-05T23:51:13.663Z,5.40
2023-01-05T23:56:18.778Z,4.83
